Time;durP1;ratioP1;P1;durP2;ratioP2;P2;SDS_P1;SDS_P2;PMS_P1;PMS_P2;Temp;Humidity;BMP_temperature;BMP_pressure;BME280_temperature;BME280_humidity;BME280_pressure;Samples;Min_cycle;Max_cycle;Signal;HPM_P1;HPM_P2
2023/04/12 00:01:27;;;;;;;9.80;6.53;;;9.10;99.90;;;;;;5073023;28;20644;-67
2023/04/12 00:03:53;;;;;;;6.30;6.00;;;9.10;99.90;;;;;;5074763;28;20619;-68
2023/04/12 00:06:24;;;;;;;7.80;7.10;;;9.00;99.90;;;;;;5074647;28;20194;-67
2023/04/12 00:08:50;;;;;;;5.53;5.23;;;9.00;99.90;;;;;;5074443;28;20181;-67
2023/04/12 00:11:16;;;;;;;6.23;5.80;;;8.90;99.90;;;;;;5073004;28;20204;-68
2023/04/12 00:13:42;;;;;;;7.33;6.30;;;8.90;99.90;;;;;;5074383;28;20198;-68
2023/04/12 00:16:08;;;;;;;7.00;6.13;;;8.90;99.90;;;;;;5074265;28;20811;-67
2023/04/12 00:18:34;;;;;;;7.53;6.83;;;8.90;99.90;;;;;;5074407;28;20166;-68
2023/04/12 00:20:59;;;;;;;6.80;6.17;;;8.90;99.90;;;;;;5073830;28;20501;-68
2023/04/12 00:23:25;;;;;;;7.20;6.57;;;8.90;99.90;;;;;;5074358;28;20178;-67
2023/04/12 00:25:50;;;;;;;5.67;5.37;;;8.90;99.90;;;;;;5074100;28;20182;-68
2023/04/12 00:28:16;;;;;;;5.87;5.47;;;8.80;99.90;;;;;;5074212;28;20170;-67
2023/04/12 00:30:42;;;;;;;8.27;6.80;;;8.80;99.90;;;;;;5073814;28;20201;-67
2023/04/12 00:33:08;;;;;;;6.00;5.50;;;8.80;99.90;;;;;;5074208;28;20170;-67
2023/04/12 00:35:33;;;;;;;5.97;5.57;;;8.80;99.90;;;;;;5074189;28;20166;-68
2023/04/12 00:38:01;;;;;;;6.37;5.83;;;8.80;99.90;;;;;;5074118;28;20173;-68
2023/04/12 00:40:27;;;;;;;6.70;5.83;;;8.80;99.90;;;;;;5073849;28;20162;-67
2023/04/12 00:42:52;;;;;;;8.20;5.60;;;8.80;99.90;;;;;;5072565;28;20178;-68
2023/04/12 00:45:20;;;;;;;5.93;5.43;;;8.70;99.90;;;;;;5074049;28;20170;-68
2023/04/12 00:47:45;;;;;;;6.83;6.43;;;8.70;99.90;;;;;;5073759;28;20279;-68
2023/04/12 00:50:11;;;;;;;7.73;7.03;;;8.70;99.90;;;;;;5073474;28;20724;-67
2023/04/12 00:52:38;;;;;;;7.50;6.90;;;8.60;99.90;;;;;;5073831;28;20180;-67
2023/04/12 00:55:04;;;;;;;6.27;5.77;;;8.60;99.90;;;;;;5073649;28;20197;-67
2023/04/12 00:57:38;;;;;;;5.93;5.43;;;8.60;99.90;;;;;;5073496;28;20201;-67
2023/04/12 01:00:07;;;;;;;6.73;6.10;;;8.60;99.90;;;;;;5073315;28;20368;-68
2023/04/12 01:02:33;;;;;;;5.60;5.30;;;8.60;99.90;;;;;;5073721;28;20223;-67
2023/04/12 01:05:00;;;;;;;6.07;5.63;;;8.70;99.90;;;;;;5073536;28;20583;-67
2023/04/12 01:07:43;;;;;;;5.90;5.60;;;8.70;99.90;;;;;;5072715;28;20239;-67
2023/04/12 01:10:18;;;;;;;6.83;6.53;;;8.70;99.90;;;;;;5073122;28;20220;-67
2023/04/12 01:13:09;;;;;;;6.77;5.93;;;8.60;99.90;;;;;;5073520;28;20169;-67
2023/04/12 01:15:44;;;;;;;6.47;5.90;;;8.60;99.90;;;;;;5073237;28;20251;-66
2023/04/12 01:18:21;;;;;;;6.47;5.40;;;8.60;99.90;;;;;;5073525;28;20196;-67
2023/04/12 01:21:08;;;;;;;6.60;6.00;;;8.50;99.90;;;;;;5072744;28;20166;-67
2023/04/12 01:24:12;;;;;;;5.20;5.00;;;8.40;99.90;;;;;;5072118;28;20264;-67
2023/04/12 01:26:38;;;;;;;8.43;5.70;;;8.40;99.90;;;;;;5073524;28;20588;-67
2023/04/12 01:29:13;;;;;;;5.73;5.43;;;8.30;99.90;;;;;;5073016;28;20174;-68
2023/04/12 01:31:58;;;;;;;5.47;5.17;;;8.30;99.90;;;;;;5072925;28;20200;-68
2023/04/12 01:34:27;;;;;;;6.00;5.70;;;8.30;99.90;;;;;;5071760;28;20174;-67
2023/04/12 01:36:54;;;;;;;5.97;5.50;;;8.30;99.90;;;;;;5072816;28;20186;-67
2023/04/12 01:39:20;;;;;;;6.23;5.77;;;8.20;99.90;;;;;;5072844;28;20208;-68
2023/04/12 01:41:47;;;;;;;6.43;6.07;;;8.20;99.90;;;;;;5072483;28;20577;-67
2023/04/12 01:44:17;;;;;;;5.30;5.10;;;8.20;99.90;;;;;;5072899;28;20373;-67
2023/04/12 01:46:45;;;;;;;6.73;6.23;;;8.20;99.90;;;;;;5072713;28;20273;-67
2023/04/12 01:49:12;;;;;;;5.73;5.27;;;8.20;99.90;;;;;;5072365;28;20243;-67
2023/04/12 01:52:02;;;;;;;6.13;5.73;;;8.20;99.90;;;;;;5072446;28;20248;-68
2023/04/12 01:54:32;;;;;;;6.63;6.23;;;8.20;99.90;;;;;;5072801;28;20332;-67
2023/04/12 01:57:01;;;;;;;6.33;5.93;;;8.10;99.90;;;;;;5072454;28;20231;-67
2023/04/12 01:59:39;;;;;;;5.90;5.60;;;8.10;99.90;;;;;;5072392;28;20169;-66
2023/04/12 02:02:06;;;;;;;5.63;5.33;;;8.10;99.90;;;;;;5072356;28;20658;-67
2023/04/12 02:04:33;;;;;;;5.63;5.23;;;8.10;99.90;;;;;;5061009;28;20171;-67
2023/04/12 02:06:59;;;;;;;5.47;5.17;;;8.10;99.90;;;;;;5052267;28;20248;-66
2023/04/12 02:09:24;;;;;;;8.63;6.47;;;8.10;99.90;;;;;;5051545;28;20630;-66
2023/04/12 02:11:50;;;;;;;6.20;5.90;;;8.10;99.90;;;;;;5051085;28;20664;-66
2023/04/12 02:14:16;;;;;;;5.40;5.20;;;8.10;99.90;;;;;;5051483;28;20194;-66
2023/04/12 02:16:43;;;;;;;5.40;5.07;;;8.10;99.90;;;;;;5050767;28;20186;-66
2023/04/12 02:19:09;;;;;;;7.50;5.83;;;8.10;99.90;;;;;;5050991;28;20177;-65
2023/04/12 02:21:42;;;;;;;5.57;5.30;;;8.10;99.90;;;;;;5051112;28;20254;-65
2023/04/12 02:24:09;;;;;;;5.67;5.37;;;8.10;99.90;;;;;;5051246;28;20171;-65
2023/04/12 02:26:35;;;;;;;5.40;5.10;;;8.10;99.90;;;;;;5051223;28;20259;-66
2023/04/12 02:29:02;;;;;;;5.43;5.17;;;8.10;99.90;;;;;;5051054;28;20173;-66
2023/04/12 02:31:29;;;;;;;5.37;5.17;;;8.10;99.90;;;;;;5050780;28;20171;-66
2023/04/12 02:33:55;;;;;;;6.93;6.20;;;8.10;99.90;;;;;;5050968;28;20170;-67
2023/04/12 02:36:21;;;;;;;6.20;5.60;;;8.10;99.90;;;;;;5051285;28;20202;-72
2023/04/12 02:38:49;;;;;;;6.50;6.10;;;8.10;99.90;;;;;;5052756;28;20254;-71
2023/04/12 02:41:22;;;;;;;5.70;5.37;;;8.10;99.90;;;;;;5051888;28;20544;-70
2023/04/12 02:43:48;;;;;;;5.40;5.10;;;8.10;99.90;;;;;;5052119;28;20701;-72
2023/04/12 02:46:18;;;;;;;6.10;5.57;;;8.10;99.90;;;;;;5050946;28;20290;-69
2023/04/12 02:48:44;;;;;;;5.50;5.20;;;8.10;99.90;;;;;;5052381;28;20173;-71
2023/04/12 02:51:10;;;;;;;6.40;6.00;;;8.10;99.90;;;;;;5052133;28;20205;-68
2023/04/12 02:53:36;;;;;;;6.43;5.93;;;8.10;99.90;;;;;;5052293;28;20171;-68
2023/04/12 02:56:06;;;;;;;6.00;5.60;;;8.00;99.90;;;;;;5051986;28;20595;-74
2023/04/12 02:58:36;;;;;;;5.33;5.13;;;8.00;99.90;;;;;;5052285;28;20220;-73
2023/04/12 03:01:06;;;;;;;5.60;5.30;;;8.00;99.90;;;;;;5051634;28;20167;-74
2023/04/12 03:03:33;;;;;;;4.83;4.63;;;8.00;99.90;;;;;;5055406;28;20188;-69
2023/04/12 03:05:59;;;;;;;5.43;5.23;;;8.00;99.90;;;;;;5071774;28;20222;-72
2023/04/12 03:11:03;;;;;;;5.73;5.43;;;8.00;99.90;;;;;;5010264;28;20931;-74
2023/04/12 03:13:28;;;;;;;5.93;5.67;;;7.90;99.90;;;;;;5011095;28;20168;-73
2023/04/12 03:15:57;;;;;;;5.20;5.00;;;7.90;99.90;;;;;;5010372;28;20572;-69
2023/04/12 03:18:22;;;;;;;5.40;5.20;;;7.90;99.90;;;;;;5009313;28;20175;-71
2023/04/12 03:20:49;;;;;;;6.03;5.73;;;7.90;99.90;;;;;;5010014;28;20172;-71
2023/04/12 03:23:14;;;;;;;5.70;5.13;;;7.90;99.90;;;;;;5010821;28;20198;-69
2023/04/12 03:25:41;;;;;;;7.03;5.77;;;7.90;99.90;;;;;;5010036;28;20180;-73
2023/04/12 03:28:07;;;;;;;5.77;5.53;;;7.90;99.90;;;;;;5008985;28;20179;-71
2023/04/12 03:30:32;;;;;;;5.73;5.43;;;7.90;99.90;;;;;;5008763;28;20204;-73
2023/04/12 03:32:58;;;;;;;6.17;5.77;;;7.90;99.90;;;;;;5008988;28;20315;-70
2023/04/12 03:35:24;;;;;;;5.57;5.37;;;7.90;99.90;;;;;;5010671;28;20172;-71
2023/04/12 03:37:50;;;;;;;6.03;5.77;;;7.90;99.90;;;;;;5010054;28;20241;-72
2023/04/12 03:40:16;;;;;;;5.87;5.50;;;7.90;99.90;;;;;;5010104;28;20260;-73
2023/04/12 03:42:41;;;;;;;5.50;5.20;;;7.90;99.90;;;;;;5010590;28;20235;-72
2023/04/12 03:45:07;;;;;;;5.83;5.37;;;7.90;99.90;;;;;;5008840;28;20180;-68
2023/04/12 03:47:33;;;;;;;5.63;5.43;;;7.90;99.90;;;;;;5010092;28;20199;-72
2023/04/12 03:50:06;;;;;;;6.53;6.03;;;7.90;99.90;;;;;;5009190;28;20207;-69
2023/04/12 03:52:32;;;;;;;6.33;5.97;;;7.90;99.90;;;;;;5010321;28;20172;-68
2023/04/12 03:54:58;;;;;;;6.63;6.03;;;7.90;99.90;;;;;;5009988;28;20175;-72
2023/04/12 03:57:24;;;;;;;8.17;6.17;;;7.90;99.90;;;;;;5009816;28;20188;-72
2023/04/12 03:59:50;;;;;;;6.53;6.07;;;8.00;99.90;;;;;;5009448;28;20173;-72
2023/04/12 04:02:16;;;;;;;6.53;6.13;;;8.00;99.90;;;;;;5009972;28;20516;-71
2023/04/12 04:04:42;;;;;;;6.03;5.73;;;8.00;99.90;;;;;;5009799;28;20178;-69
2023/04/12 04:07:08;;;;;;;5.97;5.67;;;7.90;99.90;;;;;;5009909;28;20272;-69
2023/04/12 04:09:33;;;;;;;6.23;5.93;;;8.00;99.90;;;;;;5035135;28;20229;-73
2023/04/12 04:12:00;;;;;;;6.63;6.20;;;8.00;99.90;;;;;;5048143;28;20190;-70
2023/04/12 04:14:26;;;;;;;7.27;6.43;;;8.00;99.90;;;;;;5049197;28;20553;-71
2023/04/12 04:16:52;;;;;;;6.23;5.93;;;8.00;99.90;;;;;;5049033;28;20210;-68
2023/04/12 04:19:18;;;;;;;5.70;5.40;;;8.00;99.90;;;;;;5048745;28;20171;-71
2023/04/12 04:21:44;;;;;;;5.87;5.47;;;8.00;99.90;;;;;;5039816;28;20172;-72
2023/04/12 04:24:10;;;;;;;8.53;5.70;;;8.00;99.90;;;;;;5035461;28;20167;-71
2023/04/12 04:26:37;;;;;;;6.60;6.23;;;8.00;99.90;;;;;;5035870;28;20196;-71
2023/04/12 04:29:03;;;;;;;6.37;5.77;;;8.00;99.90;;;;;;5035983;28;20184;-72
2023/04/12 04:31:33;;;;;;;6.00;5.57;;;8.00;99.90;;;;;;5035562;28;20172;-71
2023/04/12 04:34:04;;;;;;;5.63;5.30;;;8.00;99.90;;;;;;5035269;28;20656;-72
2023/04/12 04:36:32;;;;;;;5.70;5.40;;;8.00;99.90;;;;;;5035567;28;20202;-70
2023/04/12 04:38:58;;;;;;;5.73;5.43;;;8.00;99.90;;;;;;5035105;28;20278;-72
2023/04/12 04:41:25;;;;;;;6.77;6.13;;;8.00;99.90;;;;;;5035058;28;20206;-71
2023/04/12 04:43:50;;;;;;;6.43;6.03;;;8.00;99.90;;;;;;5033612;28;20536;-68
2023/04/12 04:46:19;;;;;;;7.77;5.80;;;8.00;99.90;;;;;;5035471;28;20198;-70
2023/04/12 04:48:46;;;;;;;6.00;5.70;;;8.00;99.90;;;;;;5034993;28;20214;-70
2023/04/12 04:51:13;;;;;;;6.67;6.07;;;8.00;99.90;;;;;;5035310;28;20163;-70
2023/04/12 04:53:39;;;;;;;6.07;5.77;;;8.00;99.90;;;;;;5035534;28;20172;-70
2023/04/12 04:56:05;;;;;;;5.67;5.37;;;8.00;99.90;;;;;;5034757;28;20599;-73
2023/04/12 04:58:31;;;;;;;5.70;5.37;;;8.00;99.90;;;;;;5033232;28;20176;-72
2023/04/12 05:00:58;;;;;;;6.20;5.83;;;8.00;99.90;;;;;;5035278;28;20183;-68
2023/04/12 05:03:27;;;;;;;9.20;6.23;;;8.00;99.90;;;;;;5033328;28;20171;-70
2023/04/12 05:05:53;;;;;;;6.50;6.00;;;8.00;99.90;;;;;;5015122;28;20195;-69
2023/04/12 05:08:19;;;;;;;7.93;5.77;;;8.00;99.90;;;;;;5015333;28;20255;-69
2023/04/12 05:10:52;;;;;;;5.53;5.23;;;8.00;99.90;;;;;;5013933;28;20347;-70
2023/04/12 05:13:18;;;;;;;5.20;5.00;;;8.00;99.90;;;;;;5015037;28;20630;-71
2023/04/12 05:15:44;;;;;;;5.50;5.20;;;8.00;99.90;;;;;;5015208;28;20637;-71
2023/04/12 05:18:10;;;;;;;5.57;5.20;;;8.00;99.90;;;;;;5014786;28;20172;-69
2023/04/12 05:20:37;;;;;;;5.83;5.33;;;8.00;99.90;;;;;;5014799;28;20191;-70
2023/04/12 05:23:03;;;;;;;7.00;5.20;;;8.00;99.90;;;;;;5014776;28;20173;-71
2023/04/12 05:25:28;;;;;;;5.87;5.50;;;8.00;99.90;;;;;;5015482;28;20191;-71
2023/04/12 05:27:54;;;;;;;5.50;5.20;;;8.00;99.90;;;;;;5014769;28;20196;-70
2023/04/12 05:30:20;;;;;;;5.57;5.27;;;8.00;99.90;;;;;;5014626;28;20254;-69
2023/04/12 05:32:45;;;;;;;5.80;5.40;;;8.00;99.90;;;;;;5013581;28;20173;-70
2023/04/12 05:35:11;;;;;;;5.77;5.47;;;8.00;99.90;;;;;;5014735;28;20716;-73
2023/04/12 05:37:37;;;;;;;5.70;5.30;;;8.00;99.90;;;;;;5014526;28;20180;-71
2023/04/12 05:40:05;;;;;;;5.67;5.37;;;8.10;99.90;;;;;;5013906;28;20172;-70
2023/04/12 05:42:31;;;;;;;5.50;5.20;;;8.10;99.90;;;;;;5014656;28;20252;-68
2023/04/12 05:44:56;;;;;;;6.27;5.87;;;8.10;99.90;;;;;;5014640;28;20196;-70
2023/04/12 05:47:22;;;;;;;6.87;6.23;;;8.10;99.90;;;;;;5013625;28;20195;-65
2023/04/12 05:49:47;;;;;;;6.17;5.77;;;8.10;99.90;;;;;;5012400;28;20261;-66
2023/04/12 05:52:13;;;;;;;6.33;5.93;;;8.10;99.90;;;;;;5012772;28;20172;-66
2023/04/12 05:54:39;;;;;;;5.97;5.67;;;8.20;99.90;;;;;;5012914;28;20157;-66
2023/04/12 05:57:04;;;;;;;7.03;6.57;;;8.20;99.90;;;;;;5012724;28;20203;-66
2023/04/12 05:59:30;;;;;;;8.47;6.27;;;8.20;99.90;;;;;;5011421;28;20194;-66
2023/04/12 06:01:56;;;;;;;6.70;6.30;;;8.20;99.90;;;;;;5012634;28;20179;-66
2023/04/12 06:04:22;;;;;;;6.33;5.93;;;8.20;99.90;;;;;;5003114;28;20179;-66
2023/04/12 06:06:47;;;;;;;5.90;5.53;;;8.20;99.90;;;;;;4992892;28;20283;-66
2023/04/12 06:09:13;;;;;;;5.97;5.67;;;8.20;99.90;;;;;;4992495;28;20292;-67
2023/04/12 06:11:39;;;;;;;6.50;6.10;;;8.20;99.90;;;;;;4992913;28;20169;-66
2023/04/12 06:14:05;;;;;;;6.30;5.90;;;8.20;99.90;;;;;;4992590;28;20177;-67
2023/04/12 06:16:31;;;;;;;6.60;6.20;;;8.20;99.90;;;;;;4992796;28;20239;-65
2023/04/12 06:18:56;;;;;;;6.70;6.17;;;8.20;99.90;;;;;;4991330;28;20172;-67
2023/04/12 06:21:23;;;;;;;6.53;5.73;;;8.30;99.90;;;;;;4992630;28;20171;-66
2023/04/12 06:23:48;;;;;;;6.07;5.70;;;8.30;99.90;;;;;;4996600;28;20199;-66
2023/04/12 06:26:14;;;;;;;5.77;5.47;;;8.30;99.90;;;;;;4992526;28;20480;-66
2023/04/12 06:28:40;;;;;;;6.40;5.33;;;8.30;99.90;;;;;;4992730;28;20173;-66
2023/04/12 06:31:06;;;;;;;5.80;5.50;;;8.40;99.90;;;;;;4990746;28;20231;-66
2023/04/12 06:33:31;;;;;;;5.60;5.30;;;8.40;99.90;;;;;;5005833;28;20206;-66
2023/04/12 06:35:57;;;;;;;5.90;5.53;;;8.40;99.90;;;;;;4992044;28;20197;-67
2023/04/12 06:38:22;;;;;;;5.40;5.10;;;8.40;99.90;;;;;;4992705;28;20208;-66
2023/04/12 06:40:48;;;;;;;6.70;6.20;;;8.40;99.90;;;;;;4991906;28;20670;-66
2023/04/12 06:43:21;;;;;;;6.00;5.60;;;8.40;99.90;;;;;;4991439;28;20534;-66
2023/04/12 06:45:48;;;;;;;5.63;5.30;;;8.50;99.90;;;;;;4990688;28;20207;-66
2023/04/12 06:48:14;;;;;;;6.50;6.10;;;8.50;99.90;;;;;;4991998;28;20270;-66
2023/04/12 06:50:40;;;;;;;6.23;5.80;;;8.50;99.90;;;;;;4991669;28;20240;-65
2023/04/12 06:53:06;;;;;;;6.53;6.10;;;8.60;99.90;;;;;;4991936;28;20639;-66
2023/04/12 06:55:31;;;;;;;7.00;6.47;;;8.60;99.90;;;;;;4990899;28;20223;-66
2023/04/12 06:57:57;;;;;;;6.30;6.00;;;8.60;99.90;;;;;;4991946;28;20259;-66
2023/04/12 07:00:23;;;;;;;6.17;5.60;;;8.70;99.90;;;;;;4991874;28;20208;-66
2023/04/12 07:02:48;;;;;;;6.17;5.67;;;8.80;99.90;;;;;;4993466;28;20173;-66
2023/04/12 07:05:14;;;;;;;6.03;5.53;;;8.80;99.90;;;;;;5004196;28;20188;-66
2023/04/12 07:07:40;;;;;;;6.10;5.80;;;8.80;99.90;;;;;;4991920;28;20690;-66
2023/04/12 07:10:08;;;;;;;5.77;5.47;;;8.90;99.90;;;;;;4998035;28;20207;-66
2023/04/12 07:12:33;;;;;;;6.07;5.77;;;8.90;99.90;;;;;;5010873;28;20226;-66
2023/04/12 07:14:59;;;;;;;6.27;5.90;;;8.80;99.90;;;;;;5010058;28;20172;-66
2023/04/12 07:17:27;;;;;;;5.60;5.30;;;8.80;99.90;;;;;;5011488;28;20191;-66
2023/04/12 07:19:53;;;;;;;5.90;5.60;;;8.80;99.90;;;;;;5011056;28;20650;-66
2023/04/12 07:22:19;;;;;;;6.20;5.80;;;8.80;99.90;;;;;;5010675;28;20635;-66
2023/04/12 07:24:45;;;;;;;5.70;5.33;;;8.80;99.90;;;;;;5011639;28;20259;-66
2023/04/12 07:27:10;;;;;;;5.77;5.47;;;8.80;99.90;;;;;;5011180;28;20638;-66
2023/04/12 07:29:36;;;;;;;5.80;5.50;;;8.80;99.90;;;;;;5011263;28;20261;-65
2023/04/12 07:32:03;;;;;;;5.90;5.60;;;8.90;99.90;;;;;;5010891;28;20179;-65
2023/04/12 07:34:29;;;;;;;5.63;5.33;;;9.00;99.90;;;;;;5011235;28;20183;-66
2023/04/12 07:36:55;;;;;;;6.17;5.50;;;9.00;99.90;;;;;;5010956;28;20200;-66
2023/04/12 07:39:21;;;;;;;5.77;5.37;;;9.10;99.90;;;;;;5009950;28;20187;-65
2023/04/12 07:41:49;;;;;;;5.37;4.97;;;9.20;99.90;;;;;;5010131;28;20187;-66
2023/04/12 07:44:14;;;;;;;6.87;5.10;;;9.30;99.90;;;;;;5008774;28;20184;-66
2023/04/12 07:46:40;;;;;;;6.30;5.30;;;9.40;99.90;;;;;;5011294;28;20196;-66
2023/04/12 07:49:07;;;;;;;5.17;4.93;;;9.50;99.90;;;;;;5010666;28;20196;-66
2023/04/12 07:51:33;;;;;;;5.53;5.03;;;9.50;99.90;;;;;;5011466;28;20180;-66
2023/04/12 07:53:58;;;;;;;6.00;5.47;;;9.40;99.90;;;;;;5010974;28;20172;-66
2023/04/12 07:56:24;;;;;;;5.53;5.20;;;9.40;99.90;;;;;;5005389;28;20204;-66
2023/04/12 07:58:50;;;;;;;5.67;5.37;;;9.40;99.90;;;;;;4995723;28;20172;-67
2023/04/12 08:01:15;;;;;;;5.43;5.13;;;9.40;99.90;;;;;;5014418;28;20172;-66
2023/04/12 08:03:41;;;;;;;6.10;5.70;;;9.50;99.90;;;;;;5015062;28;20175;-66
2023/04/12 08:06:07;;;;;;;5.70;5.30;;;9.50;99.90;;;;;;5014494;28;20272;-66
2023/04/12 08:08:33;;;;;;;5.50;5.17;;;9.50;99.90;;;;;;5014687;28;20227;-66
2023/04/12 08:11:00;;;;;;;6.13;5.67;;;9.50;99.90;;;;;;5012630;28;20287;-66
2023/04/12 08:13:26;;;;;;;6.10;5.60;;;9.50;99.90;;;;;;5005695;28;20215;-66
2023/04/12 08:15:51;;;;;;;5.97;5.47;;;9.60;99.90;;;;;;4994874;28;20201;-66
2023/04/12 08:18:17;;;;;;;5.23;4.93;;;9.70;99.90;;;;;;4994913;28;20176;-67
2023/04/12 08:20:43;;;;;;;5.63;5.33;;;9.90;99.90;;;;;;4993853;28;20668;-66
2023/04/12 08:23:09;;;;;;;5.30;5.00;;;10.10;99.90;;;;;;4994781;28;20647;-66
2023/04/12 08:25:35;;;;;;;6.13;5.73;;;10.10;99.90;;;;;;4994831;28;20269;-67
2023/04/12 08:28:02;;;;;;;5.67;5.27;;;10.20;99.90;;;;;;4994585;28;20284;-67
2023/04/12 08:30:28;;;;;;;5.37;5.07;;;10.20;99.90;;;;;;4994489;28;20200;-65
2023/04/12 08:32:53;;;;;;;4.90;4.60;;;10.30;99.90;;;;;;4994735;28;20181;-65
2023/04/12 08:35:19;;;;;;;5.50;5.20;;;10.30;99.90;;;;;;4994792;28;20169;-65
2023/04/12 08:37:44;;;;;;;5.73;5.33;;;10.40;99.90;;;;;;4994692;28;20732;-66
2023/04/12 08:40:10;;;;;;;5.77;5.37;;;10.30;99.90;;;;;;4994069;28;20184;-64
2023/04/12 08:42:37;;;;;;;5.83;5.37;;;10.20;99.90;;;;;;4994761;28;20582;-65
2023/04/12 08:45:07;;;;;;;5.57;5.17;;;10.10;99.90;;;;;;4994410;28;20188;-67
2023/04/12 08:47:35;;;;;;;5.43;5.13;;;10.10;99.90;;;;;;4994293;28;20206;-65
2023/04/12 08:50:02;;;;;;;8.17;5.60;;;10.00;99.90;;;;;;5003256;28;20204;-64
2023/04/12 08:52:28;;;;;;;6.93;5.90;;;10.00;99.90;;;;;;5014029;28;20251;-65
2023/04/12 08:54:56;;;;;;;5.30;5.03;;;10.00;99.90;;;;;;5013774;28;20251;-65
2023/04/12 08:57:22;;;;;;;5.63;5.33;;;10.10;99.90;;;;;;5011687;28;20255;-64
2023/04/12 08:59:49;;;;;;;5.40;5.10;;;10.20;99.90;;;;;;5013428;28;20176;-65
2023/04/12 09:02:15;;;;;;;5.57;5.27;;;10.30;99.90;;;;;;5013632;28;20752;-65
2023/04/12 09:04:48;;;;;;;5.70;5.30;;;10.40;99.90;;;;;;5013755;28;20243;-65
2023/04/12 09:07:13;;;;;;;5.80;5.40;;;10.40;99.90;;;;;;5013470;28;20199;-65
2023/04/12 09:09:46;;;;;;;5.70;5.40;;;10.40;99.90;;;;;;5012788;28;20223;-66
2023/04/12 09:12:13;;;;;;;6.03;5.63;;;10.50;99.90;;;;;;5012114;28;20173;-66
2023/04/12 09:14:39;;;;;;;5.70;5.40;;;10.60;99.90;;;;;;5013642;28;20550;-66
2023/04/12 09:17:22;;;;;;;5.67;5.37;;;10.70;99.90;;;;;;5013287;28;20196;-66
2023/04/12 09:19:48;;;;;;;6.20;5.57;;;10.90;99.90;;;;;;5012296;28;20233;-66
2023/04/12 09:22:14;;;;;;;6.10;5.60;;;11.00;99.90;;;;;;5013317;28;20176;-66
2023/04/12 09:24:52;;;;;;;6.10;5.70;;;11.00;99.90;;;;;;5005980;28;20650;-66
2023/04/12 09:27:19;;;;;;;6.00;5.60;;;11.00;99.90;;;;;;5010142;28;20257;-66
2023/04/12 09:29:50;;;;;;;6.27;5.87;;;11.00;99.90;;;;;;5008000;28;20208;-66
2023/04/12 09:32:25;;;;;;;7.30;5.60;;;11.00;99.90;;;;;;4993616;28;20606;-65
2023/04/12 09:34:56;;;;;;;5.80;5.40;;;11.00;99.90;;;;;;4993580;28;20180;-66
2023/04/12 09:37:22;;;;;;;5.70;5.37;;;11.00;99.90;;;;;;4993587;28;20193;-66
2023/04/12 09:39:59;;;;;;;5.50;5.20;;;10.90;99.90;;;;;;4992347;28;20643;-66
2023/04/12 09:42:25;;;;;;;5.90;5.50;;;10.90;99.90;;;;;;4999904;28;20191;-66
2023/04/12 09:44:52;;;;;;;6.10;5.70;;;11.00;99.90;;;;;;5013049;28;20582;-66
2023/04/12 09:47:17;;;;;;;6.20;5.80;;;11.20;99.90;;;;;;5013021;28;20574;-66
2023/04/12 09:49:44;;;;;;;6.20;5.80;;;11.40;99.90;;;;;;5012463;28;20206;-67
2023/04/12 09:52:12;;;;;;;6.20;5.70;;;11.60;99.90;;;;;;5012675;28;20184;-66
2023/04/12 09:54:45;;;;;;;5.37;4.97;;;11.70;99.90;;;;;;5012885;28;20176;-66
2023/04/12 09:57:11;;;;;;;6.60;6.00;;;11.70;99.90;;;;;;5012747;28;20196;-67
2023/04/12 09:59:41;;;;;;;6.07;5.53;;;11.70;99.90;;;;;;5009725;28;20668;-66
2023/04/12 10:02:27;;;;;;;6.10;5.70;;;11.80;99.90;;;;;;4993214;28;20235;-66
2023/04/12 10:04:53;;;;;;;5.87;5.47;;;11.90;99.90;;;;;;4992963;28;20181;-66
2023/04/12 10:07:19;;;;;;;5.77;5.37;;;11.90;99.90;;;;;;4992843;28;20851;-67
2023/04/12 10:09:45;;;;;;;5.60;5.30;;;11.80;99.90;;;;;;4992512;28;20307;-66
2023/04/12 10:12:11;;;;;;;5.17;4.87;;;11.80;99.90;;;;;;4992631;28;20204;-66
2023/04/12 10:14:37;;;;;;;5.60;5.20;;;11.80;99.90;;;;;;4992933;28;20204;-66
2023/04/12 10:17:04;;;;;;;5.73;5.33;;;11.80;99.90;;;;;;4992688;28;20204;-66
2023/04/12 10:19:32;;;;;;;7.17;6.70;;;11.70;99.90;;;;;;5003016;28;20207;-66
2023/04/12 10:22:00;;;;;;;6.20;5.60;;;11.60;99.90;;;;;;5012230;28;20176;-65
2023/04/12 10:24:27;;;;;;;7.33;6.73;;;11.60;99.90;;;;;;5012251;28;20172;-65
2023/04/12 10:26:54;;;;;;;9.00;8.30;;;11.50;99.90;;;;;;5012098;28;20323;-65
2023/04/12 10:29:32;;;;;;;6.13;5.63;;;11.50;99.90;;;;;;5012262;28;20212;-67
2023/04/12 10:32:23;;;;;;;5.73;5.43;;;11.40;99.90;;;;;;5012000;28;20179;-66
2023/04/12 10:34:55;;;;;;;4.20;4.00;;;11.40;99.90;;;;;;5012152;28;20168;-66
2023/04/12 10:37:21;;;;;;;4.23;4.03;;;11.30;99.90;;;;;;5012314;28;20645;-65
2023/04/12 10:39:55;;;;;;;4.47;4.27;;;11.00;99.90;;;;;;5011098;28;20222;-66
2023/04/12 10:42:28;;;;;;;4.30;4.10;;;10.90;99.90;;;;;;5011971;28;20275;-67
2023/04/12 10:45:22;;;;;;;4.80;4.60;;;11.00;99.90;;;;;;5011867;28;20177;-65
2023/04/12 10:47:48;;;;;;;5.50;5.20;;;11.00;99.90;;;;;;5010713;28;20196;-66
2023/04/12 10:50:25;;;;;;;5.00;4.80;;;11.10;99.90;;;;;;5011466;28;20218;-66
2023/04/12 10:53:11;;;;;;;4.83;4.63;;;11.00;99.90;;;;;;5011860;28;20186;-66
2023/04/12 10:55:40;;;;;;;5.63;5.07;;;10.80;99.90;;;;;;5011600;28;20556;-66
2023/04/12 10:58:05;;;;;;;6.00;5.70;;;10.80;99.90;;;;;;5011493;28;20251;-66
2023/04/12 11:00:57;;;;;;;6.07;5.73;;;10.90;99.90;;;;;;5011532;28;20263;-65
2023/04/12 11:03:24;;;;;;;5.73;5.33;;;11.10;99.90;;;;;;5011531;28;20184;-66
2023/04/12 11:06:03;;;;;;;5.77;5.37;;;11.40;99.90;;;;;;5011699;28;20575;-66
2023/04/12 11:08:30;;;;;;;6.00;5.53;;;11.60;99.90;;;;;;5011727;28;20183;-66
2023/04/12 11:11:02;;;;;;;5.90;5.50;;;11.70;99.90;;;;;;5011104;28;20294;-66
2023/04/12 11:13:28;;;;;;;5.87;5.47;;;11.80;99.90;;;;;;5011744;28;20517;-66
2023/04/12 11:15:55;;;;;;;5.73;5.33;;;12.00;99.90;;;;;;5011563;28;20173;-66
2023/04/12 11:18:21;;;;;;;5.97;5.57;;;12.10;99.90;;;;;;5008809;28;20275;-66
2023/04/12 11:20:47;;;;;;;5.47;5.13;;;12.50;99.90;;;;;;4991091;28;20181;-66
2023/04/12 11:23:13;;;;;;;5.20;4.90;;;12.90;99.90;;;;;;4991705;28;20654;-66
2023/04/12 11:25:39;;;;;;;5.73;5.33;;;13.20;99.90;;;;;;5005437;28;20184;-66
2023/04/12 11:28:05;;;;;;;5.80;5.13;;;13.40;99.90;;;;;;5011453;28;20180;-66
2023/04/12 11:30:31;;;;;;;5.40;5.00;;;13.60;99.90;;;;;;5011043;28;20250;-66
2023/04/12 11:32:57;;;;;;;5.50;5.20;;;13.80;99.90;;;;;;5015423;28;20184;-66
2023/04/12 11:35:26;;;;;;;7.77;5.53;;;14.00;99.90;;;;;;5015464;28;20246;-66
2023/04/12 11:37:53;;;;;;;4.73;4.30;;;14.20;99.90;;;;;;5012075;28;20208;-66
2023/04/12 11:40:21;;;;;;;5.40;5.00;;;14.30;99.90;;;;;;5005317;28;20181;-67
2023/04/12 11:42:47;;;;;;;5.20;4.90;;;14.40;99.90;;;;;;5001628;28;20590;-67
2023/04/12 11:45:18;;;;;;;5.70;5.40;;;14.50;99.90;;;;;;5013834;28;20190;-65
2023/04/12 11:47:45;;;;;;;4.93;4.60;;;14.60;99.90;;;;;;5006313;28;20617;-64
2023/04/12 11:50:10;;;;;;;4.80;4.50;;;14.60;99.90;;;;;;4994976;28;20316;-67
2023/04/12 11:52:36;;;;;;;4.13;3.93;;;14.80;99.90;;;;;;4995417;28;20539;-65
2023/04/12 11:55:05;;;;;;;3.80;3.63;;;15.00;99.90;;;;;;4994219;28;20172;-64
2023/04/12 11:57:31;;;;;;;4.57;4.17;;;15.20;99.90;;;;;;5010581;28;20602;-65
2023/04/12 12:00:00;;;;;;;4.30;3.90;;;15.40;99.90;;;;;;5014345;28;20705;-65
2023/04/12 12:02:26;;;;;;;4.67;4.47;;;15.50;99.90;;;;;;5014902;28;20180;-65
2023/04/12 12:04:54;;;;;;;5.90;5.37;;;15.70;99.90;;;;;;5014676;28;20263;-64
2023/04/12 12:07:21;;;;;;;5.10;4.73;;;15.70;99.90;;;;;;5014799;28;20542;-64
2023/04/12 12:09:48;;;;;;;4.83;4.43;;;15.70;99.90;;;;;;5014290;28;20270;-67
2023/04/12 12:12:14;;;;;;;3.50;3.40;;;15.70;99.90;;;;;;5014419;28;20177;-65
2023/04/12 12:14:43;;;;;;;3.73;3.53;;;15.80;99.90;;;;;;5014562;28;20234;-65
2023/04/12 12:17:11;;;;;;;4.20;3.83;;;15.90;99.90;;;;;;5014273;28;20196;-65
2023/04/12 12:19:39;;;;;;;4.30;4.00;;;16.20;99.90;;;;;;5014225;28;20180;-65
2023/04/12 12:22:20;;;;;;;4.50;4.10;;;16.70;99.90;;;;;;5014154;28;20180;-65
2023/04/12 12:24:55;;;;;;;4.23;3.97;;;16.70;99.90;;;;;;5014444;28;20270;-65
2023/04/12 12:27:22;;;;;;;4.13;3.90;;;16.60;99.90;;;;;;5012348;28;20452;-65
2023/04/12 12:29:53;;;;;;;4.80;4.10;;;16.70;99.90;;;;;;5014061;28;20232;-65
2023/04/12 12:32:21;;;;;;;3.80;3.57;;;16.90;99.90;;;;;;5014154;28;20730;-65
2023/04/12 12:34:52;;;;;;;4.13;3.80;;;17.30;99.90;;;;;;5014059;28;20535;-65
2023/04/12 12:37:20;;;;;;;5.50;3.80;;;17.70;99.90;;;;;;5013978;28;20565;-65
2023/04/12 12:40:24;;;;;;;3.80;3.50;;;18.00;99.90;;;;;;5013961;28;20176;-65
2023/04/12 12:42:51;;;;;;;4.67;3.60;;;18.00;99.90;;;;;;5013850;28;20187;-64
2023/04/12 12:45:20;;;;;;;6.30;4.03;;;17.60;99.90;;;;;;5014125;28;20535;-64
2023/04/12 12:47:50;;;;;;;4.20;3.87;;;17.20;99.90;;;;;;5014091;28;20595;-64
2023/04/12 12:50:17;;;;;;;3.90;3.67;;;16.90;99.90;;;;;;5013679;28;20200;-65
2023/04/12 12:52:45;;;;;;;4.10;3.60;;;16.60;99.90;;;;;;5013449;28;20650;-64
2023/04/12 12:55:11;;;;;;;8.03;3.60;;;16.70;99.90;;;;;;5013610;28;20263;-65
2023/04/12 12:57:37;;;;;;;3.87;3.57;;;16.50;99.90;;;;;;5013967;28;20195;-65
2023/04/12 13:00:06;;;;;;;3.60;3.40;;;16.30;99.90;;;;;;5011231;28;20634;-64